DAL9576 SBFZ-SBBE
Flight info
| Callsign | DAL9576 |
|---|---|
| Flight time | 1h 42m |
| Altitude | 38000 |
| Route | ISUPI UZ81 OBLEV DCT LIVED |
| Aircraft | A320/M-SDE3FGHIRWY/LB1 |
Departure
| Time | 2026-05-04 12:40 |
|---|---|
| Airport | Pinto Martins International Airport (SBFZ) |
Arrival
| Time | 2026-05-04 14:22 |
|---|---|
| Airport | Val de Cans/Júlio Cezar Ribeiro International Airport (SBBE) |
| Time | Latitude | Longitude | Altitude | Speed | Heading |
|---|---|---|---|---|---|
| 2026-05-04 12:32 | -3.77685 | -38.54062 | 88 ft | 0 kts | 284° |
| 2026-05-04 12:35 | -3.77684 | -38.54067 | 85 ft | 1 kts | 284° |
| 2026-05-04 12:35 | -3.77680 | -38.54082 | 86 ft | 4 kts | 285° |
| 2026-05-04 12:35 | -3.77673 | -38.54105 | 89 ft | 4 kts | 285° |
| 2026-05-04 12:36 | -3.77662 | -38.54145 | 86 ft | 8 kts | 285° |
| 2026-05-04 12:36 | -3.77644 | -38.54216 | 87 ft | 12 kts | 284° |
| 2026-05-04 12:36 | -3.77625 | -38.54287 | 87 ft | 10 kts | 284° |
| 2026-05-04 12:36 | -3.77607 | -38.54344 | 88 ft | 8 kts | 298° |
| 2026-05-04 12:37 | -3.77566 | -38.54376 | 90 ft | 8 kts | 341° |
| 2026-05-04 12:37 | -3.77518 | -38.54385 | 90 ft | 7 kts | 351° |
| 2026-05-04 12:37 | -3.77448 | -38.54382 | 89 ft | 10 kts | 13° |
| 2026-05-04 12:37 | -3.77391 | -38.54366 | 92 ft | 7 kts | 16° |
| 2026-05-04 12:38 | -3.77355 | -38.54354 | 90 ft | 4 kts | 29° |
| 2026-05-04 12:38 | -3.77348 | -38.54318 | 92 ft | 5 kts | 98° |
| 2026-05-04 12:38 | -3.77351 | -38.54303 | 90 ft | 0 kts | 103° |
| 2026-05-04 12:39 | -3.77353 | -38.54298 | 90 ft | 5 kts | 104° |
| 2026-05-04 12:39 | -3.77409 | -38.54088 | 91 ft | 67 kts | 105° |
| 2026-05-04 12:39 | -3.77594 | -38.53415 | 79 ft | 131 kts | 105° |
| 2026-05-04 12:39 | -3.77888 | -38.52394 | 264 ft | 162 kts | 107° |
| 2026-05-04 12:40 | -3.78199 | -38.51345 | 1077 ft | 155 kts | 106° |
| 2026-05-04 12:40 | -3.78484 | -38.50304 | 1807 ft | 155 kts | 106° |
| 2026-05-04 12:40 | -3.78698 | -38.49223 | 2283 ft | 169 kts | 87° |
| 2026-05-04 12:40 | -3.78196 | -38.48082 | 2578 ft | 198 kts | 49° |
| 2026-05-04 12:41 | -3.76878 | -38.47451 | 2854 ft | 232 kts | 6° |
| 2026-05-04 12:41 | -3.75226 | -38.47805 | 3293 ft | 256 kts | 337° |
| 2026-05-04 12:41 | -3.73617 | -38.48693 | 3851 ft | 270 kts | 328° |
| 2026-05-04 12:41 | -3.72053 | -38.49773 | 4672 ft | 275 kts | 325° |
| 2026-05-04 12:42 | -3.70492 | -38.50901 | 5542 ft | 278 kts | 325° |
| 2026-05-04 12:42 | -3.68908 | -38.52028 | 6415 ft | 280 kts | 326° |
| 2026-05-04 12:42 | -3.67301 | -38.53134 | 7263 ft | 282 kts | 327° |
| 2026-05-04 12:42 | -3.65779 | -38.54397 | 8049 ft | 288 kts | 314° |
| 2026-05-04 12:43 | -3.64591 | -38.56024 | 8821 ft | 292 kts | 298° |
| 2026-05-04 12:43 | -3.63765 | -38.57893 | 9595 ft | 295 kts | 293° |
| 2026-05-04 12:43 | -3.62975 | -38.59798 | 10342 ft | 298 kts | 294° |
| 2026-05-04 12:43 | -3.62171 | -38.61728 | 11065 ft | 302 kts | 294° |
| 2026-05-04 12:44 | -3.61355 | -38.63676 | 11788 ft | 305 kts | 295° |
| 2026-05-04 12:44 | -3.60515 | -38.65669 | 12238 ft | 321 kts | 295° |
| 2026-05-04 12:44 | -3.59614 | -38.67800 | 12419 ft | 344 kts | 295° |
| 2026-05-04 12:44 | -3.58661 | -38.70060 | 12758 ft | 358 kts | 295° |
| 2026-05-04 12:45 | -3.57689 | -38.72381 | 13382 ft | 364 kts | 294° |
| 2026-05-04 12:45 | -3.56710 | -38.74731 | 14043 ft | 368 kts | 294° |
| 2026-05-04 12:45 | -3.55723 | -38.77105 | 14690 ft | 371 kts | 294° |
| 2026-05-04 12:45 | -3.54728 | -38.79499 | 15325 ft | 374 kts | 294° |
| 2026-05-04 12:46 | -3.53722 | -38.81912 | 15900 ft | 377 kts | 294° |
| 2026-05-04 12:46 | -3.52704 | -38.84342 | 16503 ft | 380 kts | 294° |
| 2026-05-04 12:46 | -3.51675 | -38.86790 | 17082 ft | 383 kts | 294° |
| 2026-05-04 12:46 | -3.50639 | -38.89261 | 17627 ft | 387 kts | 294° |
| 2026-05-04 12:47 | -3.49599 | -38.91752 | 18177 ft | 389 kts | 294° |
| 2026-05-04 12:47 | -3.48554 | -38.94258 | 18702 ft | 392 kts | 294° |
| 2026-05-04 12:47 | -3.47510 | -38.96754 | 19218 ft | 395 kts | 294° |
| 2026-05-04 12:47 | -3.46441 | -38.99301 | 19723 ft | 398 kts | 294° |
| 2026-05-04 12:48 | -3.45364 | -39.01868 | 20211 ft | 401 kts | 294° |
| 2026-05-04 12:48 | -3.44280 | -39.04452 | 20688 ft | 404 kts | 294° |
| 2026-05-04 12:48 | -3.43187 | -39.07056 | 21134 ft | 407 kts | 294° |
| 2026-05-04 12:48 | -3.42089 | -39.09681 | 21568 ft | 410 kts | 293° |
| 2026-05-04 12:49 | -3.40985 | -39.12325 | 22014 ft | 413 kts | 293° |
| 2026-05-04 12:49 | -3.39875 | -39.14985 | 22424 ft | 416 kts | 293° |
| 2026-05-04 12:49 | -3.38756 | -39.17666 | 22824 ft | 419 kts | 293° |
| 2026-05-04 12:49 | -3.37625 | -39.20361 | 23228 ft | 421 kts | 293° |
| 2026-05-04 12:50 | -3.36487 | -39.23072 | 23617 ft | 424 kts | 293° |
| 2026-05-04 12:50 | -3.35343 | -39.25800 | 23987 ft | 427 kts | 293° |
| 2026-05-04 12:50 | -3.34192 | -39.28545 | 24354 ft | 429 kts | 293° |
| 2026-05-04 12:50 | -3.33035 | -39.31307 | 24722 ft | 431 kts | 293° |
| 2026-05-04 12:51 | -3.31875 | -39.34078 | 25088 ft | 433 kts | 293° |
| 2026-05-04 12:51 | -3.30706 | -39.36866 | 25452 ft | 435 kts | 293° |
| 2026-05-04 12:51 | -3.29590 | -39.39686 | 25826 ft | 437 kts | 288° |
| 2026-05-04 12:51 | -3.28906 | -39.42650 | 26146 ft | 439 kts | 277° |
| 2026-05-04 12:52 | -3.28748 | -39.45700 | 26489 ft | 440 kts | 267° |
| 2026-05-04 12:52 | -3.28968 | -39.48759 | 26825 ft | 442 kts | 265° |
| 2026-05-04 12:52 | -3.29196 | -39.51830 | 27161 ft | 443 kts | 265° |
| 2026-05-04 12:52 | -3.29343 | -39.53865 | 27383 ft | 444 kts | 265° |
| 2026-05-04 12:53 | -3.29563 | -39.56955 | 27702 ft | 446 kts | 265° |
| 2026-05-04 12:53 | -3.29783 | -39.60053 | 28027 ft | 447 kts | 265° |
| 2026-05-04 12:53 | -3.30007 | -39.63162 | 28323 ft | 449 kts | 265° |
| 2026-05-04 12:53 | -3.30234 | -39.66283 | 28625 ft | 450 kts | 265° |
| 2026-05-04 12:54 | -3.30538 | -39.70430 | 29028 ft | 452 kts | 265° |
| 2026-05-04 12:54 | -3.30769 | -39.73574 | 29334 ft | 454 kts | 265° |
| 2026-05-04 12:54 | -3.30924 | -39.75706 | 29527 ft | 455 kts | 265° |
| 2026-05-04 12:54 | -3.31154 | -39.78866 | 29815 ft | 456 kts | 265° |
| 2026-05-04 12:55 | -3.31384 | -39.82035 | 30106 ft | 457 kts | 265° |
| 2026-05-04 12:55 | -3.31615 | -39.85215 | 30375 ft | 459 kts | 265° |
| 2026-05-04 12:55 | -3.31847 | -39.88406 | 30624 ft | 461 kts | 265° |
| 2026-05-04 12:55 | -3.32079 | -39.91566 | 30868 ft | 462 kts | 265° |
| 2026-05-04 12:56 | -3.32314 | -39.94779 | 31107 ft | 464 kts | 265° |
| 2026-05-04 12:56 | -3.32550 | -39.98003 | 31345 ft | 465 kts | 265° |
| 2026-05-04 12:56 | -3.32789 | -40.01233 | 31639 ft | 465 kts | 265° |
| 2026-05-04 12:56 | -3.33026 | -40.04453 | 31984 ft | 464 kts | 265° |
| 2026-05-04 12:57 | -3.33262 | -40.07666 | 32325 ft | 463 kts | 265° |
| 2026-05-04 12:57 | -3.33497 | -40.10879 | 32653 ft | 462 kts | 265° |
| 2026-05-04 12:57 | -3.33729 | -40.14084 | 32969 ft | 461 kts | 265° |
| 2026-05-04 12:57 | -3.33957 | -40.17281 | 33295 ft | 461 kts | 265° |
| 2026-05-04 12:58 | -3.34186 | -40.20475 | 33624 ft | 460 kts | 265° |
| 2026-05-04 12:58 | -3.34419 | -40.23669 | 33951 ft | 459 kts | 265° |
| 2026-05-04 12:58 | -3.34653 | -40.26853 | 34258 ft | 458 kts | 265° |
| 2026-05-04 12:58 | -3.34882 | -40.30028 | 34567 ft | 457 kts | 265° |
| 2026-05-04 12:59 | -3.35110 | -40.33201 | 34882 ft | 456 kts | 265° |
| 2026-05-04 12:59 | -3.35340 | -40.36351 | 35215 ft | 454 kts | 265° |
| 2026-05-04 12:59 | -3.35567 | -40.39494 | 35547 ft | 452 kts | 265° |
| 2026-05-04 12:59 | -3.35790 | -40.42622 | 35846 ft | 450 kts | 265° |
| 2026-05-04 13:00 | -3.36012 | -40.45739 | 36157 ft | 448 kts | 265° |
| 2026-05-04 13:00 | -3.36235 | -40.48842 | 36447 ft | 446 kts | 265° |
| 2026-05-04 13:00 | -3.36322 | -40.51940 | 36719 ft | 445 kts | 272° |
| 2026-05-04 13:00 | -3.35918 | -40.55004 | 37027 ft | 444 kts | 280° |
| 2026-05-04 13:01 | -3.35287 | -40.58016 | 37360 ft | 441 kts | 280° |
| 2026-05-04 13:01 | -3.34667 | -40.61005 | 37681 ft | 437 kts | 280° |
| 2026-05-04 13:01 | -3.34057 | -40.63974 | 37922 ft | 435 kts | 279° |
| 2026-05-04 13:02 | -3.32851 | -40.69869 | 37980 ft | 431 kts | 279° |
| 2026-05-04 13:02 | -3.31650 | -40.75730 | 37980 ft | 430 kts | 279° |
| 2026-05-04 13:03 | -3.30442 | -40.81590 | 37980 ft | 430 kts | 279° |
| 2026-05-04 13:03 | -3.29228 | -40.87447 | 37980 ft | 430 kts | 279° |
| 2026-05-04 13:04 | -3.28018 | -40.93297 | 37981 ft | 430 kts | 279° |
| 2026-05-04 13:04 | -3.26805 | -40.99153 | 37984 ft | 430 kts | 279° |
| 2026-05-04 13:05 | -3.25590 | -41.05016 | 37986 ft | 430 kts | 279° |
| 2026-05-04 13:05 | -3.24379 | -41.10878 | 37985 ft | 430 kts | 279° |
| 2026-05-04 13:06 | -3.23172 | -41.16741 | 37984 ft | 430 kts | 279° |
| 2026-05-04 13:06 | -3.21960 | -41.22610 | 37987 ft | 431 kts | 279° |
| 2026-05-04 13:07 | -3.20746 | -41.28477 | 37990 ft | 430 kts | 279° |
| 2026-05-04 13:07 | -3.19526 | -41.34339 | 37989 ft | 431 kts | 280° |
| 2026-05-04 13:08 | -3.18307 | -41.40206 | 37993 ft | 431 kts | 279° |
| 2026-05-04 13:08 | -3.17100 | -41.46076 | 37994 ft | 431 kts | 279° |
| 2026-05-04 13:09 | -3.15887 | -41.51937 | 37994 ft | 431 kts | 279° |
| 2026-05-04 13:09 | -3.14678 | -41.57763 | 37995 ft | 430 kts | 279° |
| 2026-05-04 13:10 | -3.13459 | -41.63628 | 37991 ft | 430 kts | 280° |
| 2026-05-04 13:10 | -3.12237 | -41.69493 | 37988 ft | 431 kts | 279° |
| 2026-05-04 13:11 | -3.11023 | -41.75360 | 37987 ft | 431 kts | 279° |
| 2026-05-04 13:11 | -3.09821 | -41.81232 | 37987 ft | 431 kts | 279° |
| 2026-05-04 13:12 | -3.08628 | -41.87107 | 37987 ft | 431 kts | 279° |
| 2026-05-04 13:12 | -3.07441 | -41.92983 | 37989 ft | 431 kts | 279° |
| 2026-05-04 13:13 | -3.06243 | -41.98851 | 37993 ft | 431 kts | 279° |
| 2026-05-04 13:13 | -3.05039 | -42.04726 | 37996 ft | 431 kts | 280° |
| 2026-05-04 13:14 | -3.03843 | -42.10599 | 37999 ft | 431 kts | 279° |
| 2026-05-04 13:14 | -3.02666 | -42.16474 | 37998 ft | 430 kts | 279° |
| 2026-05-04 13:15 | -3.01617 | -42.22368 | 37996 ft | 430 kts | 278° |
| 2026-05-04 13:15 | -3.00636 | -42.28273 | 37996 ft | 431 kts | 278° |
| 2026-05-04 13:16 | -2.99633 | -42.34180 | 37997 ft | 431 kts | 278° |
| 2026-05-04 13:16 | -2.98605 | -42.40084 | 37997 ft | 431 kts | 278° |
| 2026-05-04 13:17 | -2.97573 | -42.45988 | 37997 ft | 431 kts | 278° |
| 2026-05-04 13:17 | -2.96535 | -42.51891 | 37998 ft | 431 kts | 278° |
| 2026-05-04 13:18 | -2.95513 | -42.57755 | 38000 ft | 431 kts | 278° |
| 2026-05-04 13:18 | -2.94490 | -42.63662 | 38001 ft | 431 kts | 278° |
| 2026-05-04 13:19 | -2.93466 | -42.69565 | 38002 ft | 430 kts | 278° |
| 2026-05-04 13:19 | -2.92433 | -42.75468 | 38005 ft | 430 kts | 278° |
| 2026-05-04 13:20 | -2.91396 | -42.81404 | 38006 ft | 430 kts | 278° |
| 2026-05-04 13:20 | -2.90372 | -42.87254 | 38004 ft | 430 kts | 278° |
| 2026-05-04 13:21 | -2.89339 | -42.93153 | 38006 ft | 431 kts | 278° |
| 2026-05-04 13:21 | -2.88315 | -42.99056 | 38006 ft | 431 kts | 278° |
| 2026-05-04 13:22 | -2.87292 | -43.04957 | 38005 ft | 430 kts | 278° |
| 2026-05-04 13:22 | -2.86263 | -43.10850 | 38001 ft | 430 kts | 278° |
| 2026-05-04 13:23 | -2.85230 | -43.16741 | 38001 ft | 430 kts | 278° |
| 2026-05-04 13:23 | -2.84200 | -43.22635 | 38002 ft | 430 kts | 278° |
| 2026-05-04 13:24 | -2.83173 | -43.28530 | 38006 ft | 430 kts | 278° |
| 2026-05-04 13:24 | -2.82144 | -43.34420 | 38008 ft | 430 kts | 278° |
| 2026-05-04 13:25 | -2.80601 | -43.43248 | 38008 ft | 430 kts | 278° |
| 2026-05-04 13:25 | -2.79573 | -43.49138 | 38008 ft | 430 kts | 278° |
| 2026-05-04 13:26 | -2.78538 | -43.55029 | 38008 ft | 430 kts | 278° |
| 2026-05-04 13:26 | -2.77505 | -43.60919 | 38008 ft | 430 kts | 278° |
| 2026-05-04 13:27 | -2.76478 | -43.66807 | 38009 ft | 430 kts | 279° |
| 2026-05-04 13:27 | -2.75455 | -43.72663 | 38007 ft | 430 kts | 279° |
| 2026-05-04 13:28 | -2.74422 | -43.78556 | 38007 ft | 430 kts | 278° |
| 2026-05-04 13:28 | -2.73387 | -43.84452 | 38007 ft | 430 kts | 279° |
| 2026-05-04 13:29 | -2.72352 | -43.90342 | 38006 ft | 430 kts | 279° |
| 2026-05-04 13:29 | -2.71318 | -43.96237 | 38006 ft | 430 kts | 278° |
| 2026-05-04 13:30 | -2.70288 | -44.02134 | 38006 ft | 431 kts | 279° |
| 2026-05-04 13:30 | -2.69246 | -44.08032 | 38006 ft | 430 kts | 279° |
| 2026-05-04 13:31 | -2.68207 | -44.13927 | 38004 ft | 430 kts | 279° |
| 2026-05-04 13:31 | -2.67174 | -44.19823 | 38003 ft | 431 kts | 279° |
| 2026-05-04 13:32 | -2.66136 | -44.25719 | 38001 ft | 430 kts | 279° |
| 2026-05-04 13:32 | -2.65102 | -44.31615 | 38002 ft | 430 kts | 279° |
| 2026-05-04 13:33 | -2.64069 | -44.37515 | 38006 ft | 431 kts | 279° |
| 2026-05-04 13:33 | -2.63035 | -44.43410 | 38011 ft | 431 kts | 279° |
| 2026-05-04 13:34 | -2.61993 | -44.49311 | 38012 ft | 431 kts | 279° |
| 2026-05-04 13:34 | -2.60956 | -44.55209 | 38011 ft | 430 kts | 279° |
| 2026-05-04 13:35 | -2.59409 | -44.64009 | 38009 ft | 430 kts | 279° |
| 2026-05-04 13:36 | -2.58369 | -44.69896 | 38008 ft | 430 kts | 279° |
| 2026-05-04 13:36 | -2.57334 | -44.75782 | 38007 ft | 430 kts | 279° |
| 2026-05-04 13:37 | -2.56302 | -44.81667 | 37999 ft | 430 kts | 279° |
| 2026-05-04 13:37 | -2.55263 | -44.87554 | 38000 ft | 430 kts | 279° |
| 2026-05-04 13:38 | -2.54220 | -44.93443 | 38007 ft | 430 kts | 279° |
| 2026-05-04 13:38 | -2.53180 | -44.99335 | 38008 ft | 430 kts | 279° |
| 2026-05-04 13:39 | -2.52144 | -45.05225 | 38010 ft | 430 kts | 279° |
| 2026-05-04 13:39 | -2.51106 | -45.11110 | 38011 ft | 430 kts | 279° |
| 2026-05-04 13:40 | -2.50068 | -45.16994 | 38012 ft | 430 kts | 279° |
| 2026-05-04 13:40 | -2.49035 | -45.22873 | 38012 ft | 430 kts | 279° |
| 2026-05-04 13:41 | -2.48172 | -45.27767 | 38013 ft | 430 kts | 279° |
| 2026-05-04 13:41 | -2.47129 | -45.33652 | 38014 ft | 430 kts | 279° |
| 2026-05-04 13:42 | -2.45396 | -45.43432 | 38014 ft | 430 kts | 279° |
| 2026-05-04 13:42 | -2.44528 | -45.48363 | 38014 ft | 430 kts | 279° |
| 2026-05-04 13:43 | -2.43490 | -45.54248 | 38014 ft | 430 kts | 279° |
| 2026-05-04 13:43 | -2.42455 | -45.60130 | 38015 ft | 430 kts | 279° |
| 2026-05-04 13:44 | -2.41420 | -45.66019 | 38016 ft | 430 kts | 279° |
| 2026-05-04 13:44 | -2.40376 | -45.71900 | 38017 ft | 429 kts | 279° |
| 2026-05-04 13:45 | -2.39333 | -45.77777 | 38018 ft | 429 kts | 279° |
| 2026-05-04 13:45 | -2.38306 | -45.83613 | 38010 ft | 429 kts | 279° |
| 2026-05-04 13:46 | -2.37264 | -45.89487 | 38004 ft | 429 kts | 279° |
| 2026-05-04 13:46 | -2.36223 | -45.95363 | 38003 ft | 429 kts | 279° |
| 2026-05-04 13:47 | -2.35183 | -46.01234 | 37999 ft | 428 kts | 279° |
| 2026-05-04 13:47 | -2.34137 | -46.07100 | 37999 ft | 429 kts | 279° |
| 2026-05-04 13:48 | -2.33098 | -46.12968 | 38002 ft | 429 kts | 279° |
| 2026-05-04 13:48 | -2.32060 | -46.18849 | 38005 ft | 430 kts | 279° |
| 2026-05-04 13:49 | -2.31016 | -46.24732 | 38008 ft | 430 kts | 279° |
| 2026-05-04 13:49 | -2.29967 | -46.30616 | 38011 ft | 429 kts | 279° |
| 2026-05-04 13:50 | -2.28929 | -46.36489 | 38013 ft | 429 kts | 279° |
| 2026-05-04 13:50 | -2.27890 | -46.42354 | 38013 ft | 428 kts | 279° |
| 2026-05-04 13:51 | -2.26847 | -46.48222 | 38014 ft | 429 kts | 279° |
| 2026-05-04 13:51 | -2.25802 | -46.54092 | 38015 ft | 429 kts | 279° |
| 2026-05-04 13:52 | -2.24745 | -46.60061 | 37541 ft | 439 kts | 279° |
| 2026-05-04 13:52 | -2.24212 | -46.63067 | 37291 ft | 439 kts | 279° |
| 2026-05-04 13:52 | -2.23680 | -46.66069 | 37044 ft | 437 kts | 279° |
| 2026-05-04 13:53 | -2.23152 | -46.69055 | 36793 ft | 436 kts | 279° |
| 2026-05-04 13:53 | -2.22626 | -46.72028 | 36391 ft | 433 kts | 279° |
| 2026-05-04 13:53 | -2.22099 | -46.74983 | 35855 ft | 430 kts | 279° |
| 2026-05-04 13:54 | -2.21051 | -46.80822 | 34841 ft | 424 kts | 279° |
| 2026-05-04 13:54 | -2.20538 | -46.83715 | 34325 ft | 421 kts | 279° |
| 2026-05-04 13:54 | -2.19526 | -46.89458 | 33304 ft | 417 kts | 279° |
| 2026-05-04 13:55 | -2.19023 | -46.92305 | 32801 ft | 415 kts | 279° |
| 2026-05-04 13:55 | -2.18009 | -46.97955 | 31803 ft | 411 kts | 279° |
| 2026-05-04 13:55 | -2.17506 | -47.00756 | 31317 ft | 408 kts | 279° |
| 2026-05-04 13:56 | -2.17010 | -47.03538 | 30835 ft | 406 kts | 279° |
| 2026-05-04 13:56 | -2.16519 | -47.06307 | 30366 ft | 403 kts | 279° |
| 2026-05-04 13:56 | -2.15550 | -47.11789 | 29455 ft | 397 kts | 279° |
| 2026-05-04 13:57 | -2.15069 | -47.14499 | 29010 ft | 395 kts | 279° |
| 2026-05-04 13:57 | -2.14591 | -47.17192 | 28577 ft | 392 kts | 279° |
| 2026-05-04 13:58 | -2.13181 | -47.25144 | 27282 ft | 383 kts | 279° |
| 2026-05-04 13:58 | -2.12256 | -47.30320 | 26394 ft | 379 kts | 279° |
| 2026-05-04 13:58 | -2.11793 | -47.32908 | 25947 ft | 377 kts | 279° |
| 2026-05-04 13:59 | -2.11334 | -47.35483 | 25481 ft | 376 kts | 279° |
| 2026-05-04 13:59 | -2.10879 | -47.38046 | 25017 ft | 374 kts | 279° |
| 2026-05-04 13:59 | -2.09976 | -47.43143 | 24052 ft | 371 kts | 278° |
| 2026-05-04 14:00 | -2.09526 | -47.45677 | 23570 ft | 370 kts | 279° |
| 2026-05-04 14:00 | -2.08624 | -47.50733 | 22615 ft | 368 kts | 279° |
| 2026-05-04 14:00 | -2.08178 | -47.53248 | 22149 ft | 367 kts | 279° |
| 2026-05-04 14:01 | -2.07732 | -47.55758 | 21677 ft | 366 kts | 279° |
| 2026-05-04 14:01 | -2.07179 | -47.58242 | 21217 ft | 366 kts | 288° |
| 2026-05-04 14:01 | -2.05162 | -47.62891 | 20306 ft | 364 kts | 294° |
| 2026-05-04 14:02 | -2.04120 | -47.65196 | 19848 ft | 364 kts | 294° |
| 2026-05-04 14:02 | -2.03079 | -47.67497 | 19387 ft | 363 kts | 294° |
| 2026-05-04 14:02 | -2.02039 | -47.69794 | 18944 ft | 362 kts | 294° |
| 2026-05-04 14:02 | -2.01002 | -47.72087 | 18497 ft | 362 kts | 294° |
| 2026-05-04 14:03 | -1.99972 | -47.74378 | 18050 ft | 361 kts | 294° |
| 2026-05-04 14:03 | -1.98946 | -47.76664 | 17612 ft | 360 kts | 294° |
| 2026-05-04 14:03 | -1.97919 | -47.78944 | 17172 ft | 359 kts | 294° |
| 2026-05-04 14:03 | -1.96891 | -47.81221 | 16742 ft | 359 kts | 294° |
| 2026-05-04 14:04 | -1.94846 | -47.85752 | 15892 ft | 357 kts | 295° |
| 2026-05-04 14:04 | -1.93827 | -47.88011 | 15481 ft | 356 kts | 295° |
| 2026-05-04 14:04 | -1.92810 | -47.90261 | 15064 ft | 355 kts | 295° |
| 2026-05-04 14:05 | -1.90786 | -47.94748 | 14231 ft | 352 kts | 295° |
| 2026-05-04 14:05 | -1.89782 | -47.96973 | 13822 ft | 350 kts | 295° |
| 2026-05-04 14:05 | -1.88787 | -47.99186 | 13541 ft | 344 kts | 295° |
| 2026-05-04 14:06 | -1.87832 | -48.01314 | 13217 ft | 330 kts | 295° |
| 2026-05-04 14:06 | -1.86897 | -48.03397 | 12688 ft | 330 kts | 295° |
| 2026-05-04 14:06 | -1.85955 | -48.05487 | 12379 ft | 327 kts | 296° |
| 2026-05-04 14:06 | -1.85014 | -48.07569 | 11902 ft | 330 kts | 296° |
| 2026-05-04 14:07 | -1.84081 | -48.09628 | 11696 ft | 322 kts | 296° |
| 2026-05-04 14:07 | -1.83168 | -48.11641 | 11426 ft | 312 kts | 296° |
| 2026-05-04 14:07 | -1.82288 | -48.13587 | 10954 ft | 304 kts | 296° |
| 2026-05-04 14:07 | -1.81424 | -48.15503 | 10401 ft | 301 kts | 296° |
| 2026-05-04 14:08 | -1.80564 | -48.17407 | 9940 ft | 301 kts | 296° |
| 2026-05-04 14:08 | -1.79700 | -48.19320 | 9537 ft | 302 kts | 296° |
| 2026-05-04 14:08 | -1.78843 | -48.21214 | 9206 ft | 299 kts | 296° |
| 2026-05-04 14:08 | -1.77983 | -48.23114 | 8733 ft | 300 kts | 296° |
| 2026-05-04 14:09 | -1.76322 | -48.26798 | 7871 ft | 280 kts | 296° |
| 2026-05-04 14:09 | -1.75535 | -48.28543 | 7467 ft | 271 kts | 296° |
| 2026-05-04 14:10 | -1.73896 | -48.31782 | 6870 ft | 248 kts | 302° |
| 2026-05-04 14:10 | -1.73031 | -48.33265 | 6758 ft | 246 kts | 302° |
| 2026-05-04 14:10 | -1.72174 | -48.34746 | 6634 ft | 246 kts | 302° |
| 2026-05-04 14:10 | -1.71333 | -48.36201 | 6489 ft | 238 kts | 302° |
| 2026-05-04 14:11 | -1.70513 | -48.37618 | 6340 ft | 234 kts | 302° |
| 2026-05-04 14:11 | -1.68889 | -48.40420 | 6081 ft | 232 kts | 302° |
| 2026-05-04 14:11 | -1.68079 | -48.41812 | 5943 ft | 232 kts | 302° |
| 2026-05-04 14:12 | -1.67282 | -48.43185 | 5802 ft | 231 kts | 302° |
| 2026-05-04 14:12 | -1.66463 | -48.44589 | 5658 ft | 230 kts | 302° |
| 2026-05-04 14:12 | -1.64866 | -48.47336 | 5406 ft | 230 kts | 302° |
| 2026-05-04 14:13 | -1.64052 | -48.48732 | 5266 ft | 229 kts | 302° |
| 2026-05-04 14:13 | -1.63259 | -48.50084 | 5134 ft | 228 kts | 302° |
| 2026-05-04 14:13 | -1.62455 | -48.51450 | 4945 ft | 227 kts | 302° |
| 2026-05-04 14:13 | -1.61655 | -48.52811 | 4887 ft | 227 kts | 302° |
| 2026-05-04 14:14 | -1.60856 | -48.54170 | 4843 ft | 227 kts | 302° |
| 2026-05-04 14:14 | -1.59260 | -48.56884 | 4794 ft | 226 kts | 302° |
| 2026-05-04 14:14 | -1.58462 | -48.58231 | 4673 ft | 225 kts | 303° |
| 2026-05-04 14:15 | -1.56904 | -48.60864 | 4304 ft | 213 kts | 303° |
| 2026-05-04 14:15 | -1.55301 | -48.63265 | 3775 ft | 201 kts | 322° |
| 2026-05-04 14:16 | -1.52773 | -48.63928 | 3139 ft | 185 kts | 4° |
| 2026-05-04 14:16 | -1.51639 | -48.63472 | 2952 ft | 171 kts | 40° |
| 2026-05-04 14:17 | -1.50663 | -48.61486 | 2955 ft | 164 kts | 78° |
| 2026-05-04 14:17 | -1.50228 | -48.60444 | 2967 ft | 163 kts | 59° |
| 2026-05-04 14:17 | -1.48939 | -48.58814 | 2835 ft | 141 kts | 49° |
| 2026-05-04 14:18 | -1.48274 | -48.58102 | 2678 ft | 139 kts | 47° |
| 2026-05-04 14:18 | -1.46929 | -48.56715 | 2309 ft | 139 kts | 47° |
| 2026-05-04 14:19 | -1.45570 | -48.55336 | 1940 ft | 139 kts | 46° |
| 2026-05-04 14:19 | -1.44890 | -48.54649 | 1750 ft | 139 kts | 46° |
| 2026-05-04 14:19 | -1.44210 | -48.53962 | 1574 ft | 139 kts | 46° |
| 2026-05-04 14:19 | -1.43528 | -48.53270 | 1385 ft | 140 kts | 48° |
| 2026-05-04 14:20 | -1.42843 | -48.52570 | 1201 ft | 141 kts | 48° |
| 2026-05-04 14:20 | -1.42154 | -48.51864 | 1004 ft | 142 kts | 47° |
| 2026-05-04 14:20 | -1.41455 | -48.51163 | 802 ft | 143 kts | 47° |
| 2026-05-04 14:21 | -1.40075 | -48.49758 | 485 ft | 143 kts | 44° |
| 2026-05-04 14:21 | -1.39363 | -48.49072 | 261 ft | 142 kts | 50° |
| 2026-05-04 14:21 | -1.38674 | -48.48376 | 58 ft | 139 kts | 53° |
| 2026-05-04 14:21 | -1.38118 | -48.47776 | 46 ft | 86 kts | 42° |
| 2026-05-04 14:22 | -1.37786 | -48.47455 | 48 ft | 52 kts | 46° |
| 2026-05-04 14:22 | -1.37571 | -48.47250 | 49 ft | 37 kts | 41° |
| 2026-05-04 14:22 | -1.37514 | -48.47167 | 53 ft | 4 kts | 20° |
| 2026-05-04 14:22 | -1.37504 | -48.47214 | 53 ft | 14 kts | 243° |
| 2026-05-04 14:23 | -1.37715 | -48.47407 | 48 ft | 24 kts | 224° |
| 2026-05-04 14:23 | -1.37835 | -48.47531 | 45 ft | 26 kts | 224° |
| 2026-05-04 14:23 | -1.37977 | -48.47624 | 47 ft | 24 kts | 185° |
| 2026-05-04 14:24 | -1.38144 | -48.47636 | 51 ft | 24 kts | 185° |
| 2026-05-04 14:24 | -1.38312 | -48.47646 | 52 ft | 25 kts | 187° |
| 2026-05-04 14:24 | -1.38479 | -48.47664 | 54 ft | 22 kts | 183° |
| 2026-05-04 14:24 | -1.38632 | -48.47681 | 52 ft | 19 kts | 202° |
| 2026-05-04 14:25 | -1.38675 | -48.47779 | 53 ft | 15 kts | 242° |
| 2026-05-04 14:25 | -1.38783 | -48.47808 | 52 ft | 5 kts | 188° |
| 2026-05-04 14:25 | -1.38812 | -48.47812 | 54 ft | 3 kts | 189° |
| 2026-05-04 14:26 | -1.38832 | -48.47816 | 52 ft | 2 kts | 193° |
| 2026-05-04 14:26 | -1.38839 | -48.47827 | 53 ft | 2 kts | 259° |
| 2026-05-04 14:26 | -1.38839 | -48.47851 | 50 ft | 5 kts | 275° |
| 2026-05-04 14:26 | -1.38849 | -48.47882 | 49 ft | 4 kts | 234° |
| 2026-05-04 14:27 | -1.38858 | -48.47893 | 55 ft | 0 kts | 230° |